createdAt,value
2023-01-30T00:02:10.043Z,19.20
2023-01-30T00:04:41.513Z,19.92
2023-01-30T00:07:13.002Z,25.38
2023-01-30T00:09:44.414Z,20.17
2023-01-30T00:12:15.877Z,19.80
2023-01-30T00:14:47.294Z,21.42
2023-01-30T00:17:18.780Z,21.43
2023-01-30T00:19:50.208Z,23.73
2023-01-30T00:22:21.700Z,27.37
2023-01-30T00:24:53.239Z,21.92
2023-01-30T00:27:24.732Z,21.73
2023-01-30T00:32:47.583Z,20.83
2023-01-30T00:35:19.037Z,22.20
2023-01-30T00:37:50.485Z,24.30
2023-01-30T00:40:21.921Z,17.42
2023-01-30T00:42:53.754Z,23.02
2023-01-30T00:45:25.236Z,22.33
2023-01-30T00:47:58.403Z,24.93
2023-01-30T00:50:29.866Z,17.92
2023-01-30T00:53:01.282Z,26.52
2023-01-30T00:55:32.779Z,20.77
2023-01-30T00:58:04.620Z,17.15
2023-01-30T01:00:36.762Z,20.45
2023-01-30T01:03:08.319Z,17.35
2023-01-30T01:05:39.865Z,18.90
2023-01-30T01:08:11.907Z,17.08
2023-01-30T01:10:43.466Z,17.35
2023-01-30T01:13:14.978Z,18.02
2023-01-30T01:15:46.447Z,14.50
2023-01-30T01:18:17.908Z,17.00
2023-01-30T01:20:49.333Z,15.20
2023-01-30T01:23:20.735Z,16.27
2023-01-30T01:25:52.189Z,19.38
2023-01-30T01:28:23.636Z,16.23
2023-01-30T01:30:55.104Z,20.05
2023-01-30T01:33:28.018Z,19.48
2023-01-30T01:35:59.474Z,18.77
2023-01-30T01:38:30.951Z,17.97
2023-01-30T01:41:02.512Z,18.48
2023-01-30T01:43:37.589Z,20.20
2023-01-30T01:46:22.511Z,19.25
2023-01-30T01:48:58.019Z,19.90
2023-01-30T01:52:07.198Z,17.08
2023-01-30T01:54:44.384Z,20.80
2023-01-30T01:57:23.333Z,14.70
2023-01-30T02:00:02.391Z,18.33
2023-01-30T02:02:34.647Z,17.90
2023-01-30T02:05:07.023Z,19.35
2023-01-30T02:07:46.087Z,17.55
2023-01-30T02:10:29.654Z,17.20
2023-01-30T02:13:01.106Z,14.65
2023-01-30T02:15:33.586Z,20.23
2023-01-30T02:18:05.169Z,19.90
2023-01-30T02:20:55.355Z,21.25
2023-01-30T02:24:02.375Z,16.13
2023-01-30T02:26:54.571Z,16.50
2023-01-30T02:29:53.093Z,19.85
2023-01-30T02:32:33.510Z,14.43
2023-01-30T02:35:20.256Z,18.63
2023-01-30T02:38:22.879Z,16.63
2023-01-30T02:41:02.203Z,15.90
2023-01-30T02:43:41.776Z,18.75
2023-01-30T02:46:23.753Z,17.77
2023-01-30T02:49:06.010Z,24.02
2023-01-30T02:51:38.937Z,16.73
2023-01-30T02:54:13.516Z,19.30
2023-01-30T02:56:50.955Z,19.77
2023-01-30T02:59:31.503Z,23.48
2023-01-30T03:02:27.482Z,19.45
2023-01-30T03:05:27.577Z,24.95
2023-01-30T03:08:04.577Z,17.05
2023-01-30T03:10:50.985Z,19.25
2023-01-30T03:13:37.506Z,21.20
2023-01-30T03:16:31.980Z,27.30
2023-01-30T03:19:05.187Z,20.52
2023-01-30T03:21:43.632Z,23.20
2023-01-30T03:24:15.799Z,23.80
2023-01-30T03:26:54.816Z,22.27
2023-01-30T03:29:26.341Z,26.30
2023-01-30T03:31:57.779Z,26.17
2023-01-30T03:34:29.315Z,22.43
2023-01-30T03:37:00.956Z,20.17
2023-01-30T03:39:32.562Z,21.50
2023-01-30T03:42:04.178Z,22.13
2023-01-30T03:44:35.601Z,22.30
2023-01-30T03:47:07.046Z,24.75
2023-01-30T03:49:38.635Z,27.58
2023-01-30T03:52:10.170Z,20.65
2023-01-30T03:54:41.639Z,25.80
2023-01-30T03:57:13.082Z,21.10
2023-01-30T03:59:44.540Z,26.95
2023-01-30T04:02:16.020Z,25.25
2023-01-30T04:04:47.544Z,18.40
2023-01-30T04:07:19.393Z,18.45
2023-01-30T04:09:50.821Z,15.18
2023-01-30T04:12:22.385Z,17.83
2023-01-30T04:14:53.924Z,16.13
2023-01-30T04:17:25.395Z,14.30
2023-01-30T04:19:56.803Z,14.27
2023-01-30T04:22:28.247Z,12.60
2023-01-30T04:24:59.661Z,13.55
2023-01-30T04:27:31.116Z,15.57
2023-01-30T04:30:02.870Z,12.73
2023-01-30T04:32:34.332Z,16.05
2023-01-30T04:35:06.071Z,16.10
2023-01-30T04:37:37.527Z,13.83
2023-01-30T04:40:09.565Z,16.60
2023-01-30T04:42:41.026Z,18.58
2023-01-30T04:45:12.487Z,20.48
2023-01-30T04:47:43.943Z,19.55
2023-01-30T04:50:15.751Z,19.77
2023-01-30T04:52:47.216Z,15.98
2023-01-30T04:55:18.991Z,15.33
2023-01-30T04:57:50.631Z,16.98
2023-01-30T05:00:22.211Z,20.42
2023-01-30T05:02:54.044Z,18.40
2023-01-30T05:05:26.943Z,18.73
2023-01-30T05:07:58.652Z,20.25
2023-01-30T05:10:30.057Z,17.80
2023-01-30T05:13:03.347Z,21.73
2023-01-30T05:15:34.780Z,21.37
2023-01-30T05:18:06.182Z,21.15
2023-01-30T05:20:37.653Z,22.00
2023-01-30T05:23:09.084Z,26.60
2023-01-30T05:25:40.806Z,19.92
2023-01-30T05:28:12.264Z,24.08
2023-01-30T05:30:45.595Z,29.77
2023-01-30T05:33:17.787Z,26.30
2023-01-30T05:35:50.502Z,28.45
2023-01-30T05:38:26.590Z,25.10
2023-01-30T05:41:03.271Z,31.92
2023-01-30T05:43:35.160Z,30.33
2023-01-30T05:46:07.715Z,34.20
2023-01-30T05:48:39.438Z,27.90
2023-01-30T05:51:37.230Z,27.23
2023-01-30T05:54:08.884Z,28.77
2023-01-30T05:56:40.280Z,32.03
2023-01-30T05:59:12.123Z,30.83
2023-01-30T06:01:43.552Z,30.30
2023-01-30T06:04:15.024Z,24.70
2023-01-30T06:06:49.322Z,27.52
2023-01-30T06:09:20.790Z,26.10
2023-01-30T06:11:52.440Z,24.90
2023-01-30T06:14:24.541Z,31.20
2023-01-30T06:16:55.948Z,34.00
2023-01-30T06:19:27.427Z,32.35
2023-01-30T06:21:58.902Z,34.25
2023-01-30T06:24:30.346Z,32.28
2023-01-30T06:27:01.824Z,35.00
2023-01-30T06:29:33.231Z,28.98
2023-01-30T06:32:04.969Z,30.15
2023-01-30T06:34:36.430Z,30.07
2023-01-30T06:37:07.851Z,31.15
2023-01-30T06:39:39.295Z,32.55
2023-01-30T06:42:10.927Z,28.65
2023-01-30T06:44:42.336Z,25.77
2023-01-30T06:47:13.784Z,31.52
2023-01-30T06:49:45.284Z,28.17
2023-01-30T06:52:16.679Z,25.08
2023-01-30T06:54:48.090Z,22.73
2023-01-30T06:57:19.498Z,27.13
2023-01-30T06:59:50.923Z,23.33
2023-01-30T07:02:22.315Z,29.10
2023-01-30T07:04:53.707Z,24.60
2023-01-30T07:07:25.150Z,26.65
2023-01-30T07:10:07.445Z,20.85
2023-01-30T07:12:39.971Z,26.50
2023-01-30T07:15:11.792Z,23.90
2023-01-30T07:17:43.300Z,25.30
2023-01-30T07:20:15.057Z,24.35
2023-01-30T07:22:54.226Z,23.05
2023-01-30T07:25:27.255Z,23.85
2023-01-30T07:28:02.727Z,23.05
2023-01-30T07:30:34.889Z,26.40
2023-01-30T07:33:06.585Z,24.33
2023-01-30T07:35:38.195Z,28.60
2023-01-30T07:38:09.702Z,26.38
2023-01-30T07:40:41.122Z,26.67
2023-01-30T07:43:13.839Z,28.17
2023-01-30T07:45:48.064Z,28.33
2023-01-30T07:48:19.986Z,23.83
2023-01-30T07:50:55.765Z,29.08
2023-01-30T07:53:27.366Z,27.27
2023-01-30T07:55:58.865Z,34.30
2023-01-30T07:58:30.929Z,29.08
2023-01-30T08:01:02.652Z,26.55
2023-01-30T08:03:34.109Z,24.83
2023-01-30T08:06:05.992Z,25.92
2023-01-30T08:08:37.457Z,27.55
2023-01-30T08:11:09.570Z,31.13
2023-01-30T08:13:41.129Z,25.50
2023-01-30T08:16:12.744Z,25.65
2023-01-30T08:18:44.205Z,31.80
2023-01-30T08:21:15.657Z,27.33
2023-01-30T08:23:47.114Z,28.35
2023-01-30T08:26:18.659Z,24.60
2023-01-30T08:28:50.154Z,26.92
2023-01-30T08:31:21.906Z,28.13
2023-01-30T08:33:53.311Z,30.42
2023-01-30T08:36:24.763Z,22.48
2023-01-30T08:38:56.219Z,24.85
2023-01-30T08:41:27.683Z,26.00
2023-01-30T08:43:59.098Z,26.58
2023-01-30T08:46:30.603Z,26.05
2023-01-30T08:49:02.061Z,26.52
2023-01-30T08:51:33.653Z,25.88
2023-01-30T08:54:05.382Z,26.33
2023-01-30T08:56:36.791Z,23.30
2023-01-30T08:59:08.216Z,20.63
2023-01-30T09:01:39.701Z,24.75
2023-01-30T09:04:11.187Z,25.42
2023-01-30T09:06:42.741Z,27.05
2023-01-30T09:09:14.204Z,23.58
2023-01-30T09:11:45.648Z,22.42
2023-01-30T09:14:17.103Z,25.15
2023-01-30T09:16:50.129Z,27.40
2023-01-30T09:19:23.322Z,22.45
2023-01-30T09:21:55.979Z,24.27
2023-01-30T09:24:27.479Z,23.77
2023-01-30T09:26:59.203Z,27.40
2023-01-30T09:29:30.747Z,26.60
2023-01-30T09:32:02.184Z,20.15
2023-01-30T09:34:33.664Z,27.50
2023-01-30T09:37:05.305Z,25.20
2023-01-30T09:39:36.766Z,29.08
2023-01-30T09:42:29.987Z,24.23
2023-01-30T09:45:24.139Z,27.17
2023-01-30T09:48:10.238Z,34.90
2023-01-30T09:50:55.500Z,26.67
2023-01-30T09:53:35.759Z,25.58
2023-01-30T09:56:07.596Z,25.05
2023-01-30T09:58:49.146Z,25.07
2023-01-30T10:01:33.083Z,30.05
2023-01-30T10:04:16.487Z,26.05
2023-01-30T10:07:11.023Z,26.63
2023-01-30T10:09:51.549Z,29.13
2023-01-30T10:12:47.728Z,24.30
2023-01-30T10:15:43.681Z,26.30
2023-01-30T10:18:23.952Z,28.00
2023-01-30T10:21:24.414Z,26.58
2023-01-30T10:24:23.911Z,28.67
2023-01-30T10:26:56.839Z,28.90
2023-01-30T10:29:33.315Z,26.40
2023-01-30T10:32:14.439Z,30.30
2023-01-30T10:34:52.692Z,31.92
2023-01-30T10:37:30.033Z,29.95
2023-01-30T10:40:18.166Z,30.37
2023-01-30T10:43:21.286Z,26.55
2023-01-30T10:46:07.938Z,26.35
2023-01-30T10:48:58.784Z,31.42
2023-01-30T10:51:30.601Z,30.77
2023-01-30T10:54:19.754Z,32.47
2023-01-30T10:57:25.718Z,25.05
2023-01-30T11:00:06.830Z,32.47
2023-01-30T11:02:53.259Z,29.75
2023-01-30T11:05:27.390Z,26.60
2023-01-30T11:07:58.865Z,24.95
2023-01-30T11:10:30.814Z,29.35
2023-01-30T11:13:23.999Z,28.73
2023-01-30T11:16:03.140Z,25.88
2023-01-30T11:21:44.416Z,31.33
2023-01-30T11:24:19.951Z,29.20
2023-01-30T11:26:51.474Z,28.23
2023-01-30T11:29:33.859Z,29.98
2023-01-30T11:32:12.125Z,31.73
2023-01-30T11:34:44.106Z,32.15
2023-01-30T11:37:27.162Z,27.58
2023-01-30T11:39:58.674Z,35.35
2023-01-30T11:42:31.627Z,34.90
2023-01-30T11:45:16.688Z,34.05
2023-01-30T11:48:02.201Z,28.70
2023-01-30T11:50:43.410Z,33.30
2023-01-30T11:53:36.557Z,32.17
2023-01-30T11:56:49.848Z,36.33
2023-01-30T11:59:43.824Z,34.50
2023-01-30T12:02:38.080Z,32.35
2023-01-30T12:05:32.649Z,28.75
2023-01-30T12:08:40.291Z,32.50
2023-01-30T12:11:39.292Z,34.03
2023-01-30T12:14:35.051Z,29.10
2023-01-30T12:17:12.555Z,34.40
2023-01-30T12:20:12.878Z,31.67
2023-01-30T12:23:22.933Z,30.90
2023-01-30T12:26:06.360Z,33.30
2023-01-30T12:28:52.214Z,34.88
2023-01-30T12:31:35.034Z,33.22
2023-01-30T12:34:09.636Z,32.17
2023-01-30T12:37:10.162Z,36.47
2023-01-30T12:39:56.777Z,36.67
2023-01-30T12:42:53.118Z,33.03
2023-01-30T12:45:27.180Z,31.17
2023-01-30T12:48:20.658Z,32.17
2023-01-30T12:51:21.295Z,28.70
2023-01-30T12:54:28.823Z,31.77
2023-01-30T12:57:17.055Z,34.30
2023-01-30T13:00:05.260Z,31.05
2023-01-30T13:02:39.639Z,37.07
2023-01-30T13:05:25.415Z,34.97
2023-01-30T13:08:14.621Z,40.60
2023-01-30T13:10:57.700Z,31.23
2023-01-30T13:13:50.538Z,35.08
2023-01-30T13:16:36.747Z,29.75
2023-01-30T13:19:44.145Z,29.58
2023-01-30T13:22:41.065Z,30.60
2023-01-30T13:25:21.815Z,29.92
2023-01-30T13:28:00.949Z,28.50
2023-01-30T13:30:35.436Z,32.58
2023-01-30T13:33:13.660Z,28.38
2023-01-30T13:35:56.527Z,32.10
2023-01-30T13:38:29.862Z,34.15
2023-01-30T13:41:03.653Z,31.08
2023-01-30T13:43:47.512Z,34.63
2023-01-30T13:46:27.688Z,31.10
2023-01-30T13:49:28.467Z,32.75
2023-01-30T13:52:30.316Z,26.92
2023-01-30T13:55:26.865Z,28.52
2023-01-30T13:58:23.082Z,32.92
2023-01-30T14:00:55.931Z,31.00
2023-01-30T14:03:29.999Z,31.50
2023-01-30T14:06:04.152Z,32.22
2023-01-30T14:08:38.752Z,32.93
2023-01-30T14:11:37.976Z,30.10
2023-01-30T14:14:18.416Z,31.50
2023-01-30T14:17:07.237Z,30.05
2023-01-30T14:19:59.553Z,37.90
2023-01-30T14:22:34.871Z,32.65
2023-01-30T14:25:25.214Z,29.92
2023-01-30T14:27:59.745Z,30.00
2023-01-30T14:30:31.209Z,29.20
2023-01-30T14:33:05.275Z,32.75
2023-01-30T14:35:36.945Z,35.67
2023-01-30T14:38:19.102Z,31.88
2023-01-30T14:40:59.360Z,28.20
2023-01-30T14:43:43.011Z,28.75
2023-01-30T14:46:17.515Z,25.48
2023-01-30T14:48:48.980Z,33.42
2023-01-30T14:51:35.143Z,30.35
2023-01-30T14:54:12.400Z,28.25
2023-01-30T14:56:54.414Z,29.13
2023-01-30T15:00:15.106Z,32.17
2023-01-30T15:02:55.926Z,28.73
2023-01-30T15:05:32.411Z,36.25
2023-01-30T15:08:30.129Z,31.42
2023-01-30T15:11:11.918Z,30.52
2023-01-30T15:14:03.775Z,31.48
2023-01-30T15:16:48.894Z,30.77
2023-01-30T15:19:51.401Z,42.53
2023-01-30T15:22:47.330Z,36.07
2023-01-30T15:25:35.678Z,32.25
2023-01-30T15:28:25.681Z,37.60
2023-01-30T15:31:04.267Z,36.65
2023-01-30T15:33:47.654Z,32.22
2023-01-30T15:36:34.022Z,35.85
2023-01-30T15:39:20.786Z,40.60
2023-01-30T15:41:54.124Z,38.22
2023-01-30T15:44:43.479Z,41.05
2023-01-30T15:47:54.190Z,37.33
2023-01-30T15:50:25.766Z,34.88
2023-01-30T15:52:57.347Z,37.08
2023-01-30T15:55:35.882Z,38.75
2023-01-30T15:58:18.579Z,32.83
2023-01-30T16:00:53.588Z,41.70
2023-01-30T16:03:29.903Z,40.20
2023-01-30T16:06:01.325Z,38.65
2023-01-30T16:08:36.280Z,40.67
2023-01-30T16:11:07.704Z,38.03
2023-01-30T16:13:39.151Z,39.72
2023-01-30T16:16:18.929Z,42.90
2023-01-30T16:19:00.575Z,38.33
2023-01-30T16:21:35.295Z,36.80
2023-01-30T16:24:28.416Z,33.25
2023-01-30T16:27:04.553Z,33.75
2023-01-30T16:29:47.989Z,35.95
2023-01-30T16:32:26.080Z,32.65
2023-01-30T16:35:27.337Z,36.35
2023-01-30T16:38:01.597Z,35.70
2023-01-30T16:40:45.404Z,34.17
2023-01-30T16:43:24.383Z,32.67
2023-01-30T16:46:16.098Z,35.35
2023-01-30T16:48:47.606Z,36.72
2023-01-30T16:51:22.619Z,32.92
2023-01-30T16:53:58.731Z,35.27
2023-01-30T16:56:33.709Z,34.83
2023-01-30T16:59:05.241Z,31.77
2023-01-30T17:01:40.231Z,28.17
2023-01-30T17:04:23.586Z,36.25
2023-01-30T17:07:01.164Z,29.15
2023-01-30T17:09:45.114Z,33.65
2023-01-30T17:12:25.658Z,31.38
2023-01-30T17:15:23.156Z,28.70
2023-01-30T17:17:54.661Z,32.25
2023-01-30T17:20:33.217Z,27.40
2023-01-30T17:23:08.048Z,29.02
2023-01-30T17:25:44.681Z,30.83
2023-01-30T17:28:19.773Z,32.23
2023-01-30T17:30:51.375Z,26.70
2023-01-30T17:33:22.934Z,30.38
2023-01-30T17:35:54.415Z,29.70
2023-01-30T17:38:25.896Z,34.22
2023-01-30T17:40:57.363Z,35.47
2023-01-30T17:43:28.808Z,31.67
2023-01-30T17:46:00.573Z,32.70
2023-01-30T17:48:31.996Z,26.00
2023-01-30T17:51:03.540Z,31.10
2023-01-30T17:53:35.118Z,31.47
2023-01-30T17:56:19.534Z,33.75
2023-01-30T17:58:50.994Z,28.17
2023-01-30T18:01:22.488Z,25.77
2023-01-30T18:03:53.939Z,27.20
2023-01-30T18:06:25.793Z,34.25
2023-01-30T18:08:57.628Z,31.05
2023-01-30T18:11:29.040Z,30.13
2023-01-30T18:14:00.453Z,31.52
2023-01-30T18:16:31.976Z,33.05
2023-01-30T18:19:06.039Z,32.20
2023-01-30T18:21:38.679Z,26.65
2023-01-30T18:24:10.177Z,26.13
2023-01-30T18:26:42.054Z,26.58
2023-01-30T18:29:13.832Z,26.27
2023-01-30T18:31:45.399Z,30.13
2023-01-30T18:34:16.887Z,25.70
2023-01-30T18:36:48.362Z,20.80
2023-01-30T18:39:19.773Z,29.67
2023-01-30T18:41:51.393Z,26.30
2023-01-30T18:44:22.793Z,22.37
2023-01-30T18:46:54.232Z,20.63
2023-01-30T18:49:25.750Z,23.63
2023-01-30T18:51:57.175Z,23.05
2023-01-30T18:54:28.675Z,24.88
2023-01-30T18:57:00.115Z,22.33
2023-01-30T18:59:31.528Z,25.42
2023-01-30T19:02:02.974Z,20.58
2023-01-30T19:04:34.461Z,23.80
2023-01-30T19:07:06.565Z,20.25
2023-01-30T19:09:38.021Z,27.65
2023-01-30T19:12:09.517Z,26.05
2023-01-30T19:14:40.958Z,28.00
2023-01-30T19:17:12.487Z,26.02
2023-01-30T19:19:43.953Z,25.45
2023-01-30T19:22:17.211Z,24.58
2023-01-30T19:24:49.381Z,23.50
2023-01-30T19:27:21.127Z,22.27
2023-01-30T19:29:52.536Z,19.38
2023-01-30T19:32:23.999Z,24.65
2023-01-30T19:34:55.442Z,22.63
2023-01-30T19:37:26.865Z,18.77
2023-01-30T19:39:58.328Z,22.05
2023-01-30T19:42:29.785Z,23.20
2023-01-30T19:45:01.319Z,23.42
2023-01-30T19:47:32.809Z,23.38
2023-01-30T19:50:04.690Z,24.77
2023-01-30T19:52:36.144Z,22.83
2023-01-30T19:55:07.997Z,18.90
2023-01-30T19:57:39.385Z,20.10
2023-01-30T20:00:11.636Z,16.40
2023-01-30T20:02:43.117Z,16.23
2023-01-30T20:05:14.623Z,17.33
2023-01-30T20:07:46.095Z,21.08
2023-01-30T20:10:18.059Z,19.17
2023-01-30T20:12:49.956Z,18.45
2023-01-30T20:15:21.377Z,21.08
2023-01-30T20:17:52.815Z,24.13
2023-01-30T20:20:24.261Z,17.75
2023-01-30T20:22:55.706Z,19.15
2023-01-30T20:25:27.149Z,19.85
2023-01-30T20:27:58.627Z,20.07
2023-01-30T20:30:30.105Z,21.00
2023-01-30T20:33:01.569Z,23.47
2023-01-30T20:35:34.740Z,19.75
2023-01-30T20:38:07.555Z,22.23
2023-01-30T20:40:39.027Z,19.85
2023-01-30T20:43:10.416Z,21.55
2023-01-30T20:45:41.829Z,21.27
2023-01-30T20:48:13.288Z,19.98
2023-01-30T20:50:44.671Z,17.63
2023-01-30T20:53:16.086Z,18.08
2023-01-30T20:55:47.501Z,16.33
2023-01-30T20:58:18.931Z,18.40
2023-01-30T21:00:50.441Z,15.07
2023-01-30T21:03:25.090Z,17.40
2023-01-30T21:05:58.627Z,19.23
2023-01-30T21:08:30.354Z,16.80
2023-01-30T21:11:10.563Z,20.55
2023-01-30T21:13:42.442Z,21.23
2023-01-30T21:16:22.558Z,19.25
2023-01-30T21:19:01.406Z,20.38
2023-01-30T21:21:40.992Z,21.50
2023-01-30T21:24:14.548Z,25.85
2023-01-30T21:26:46.804Z,20.05
2023-01-30T21:29:21.926Z,17.63
2023-01-30T21:31:53.965Z,18.23
2023-01-30T21:34:25.793Z,21.48
2023-01-30T21:36:57.204Z,18.87
2023-01-30T21:39:28.648Z,20.05
2023-01-30T21:42:00.113Z,19.30
2023-01-30T21:44:34.550Z,18.73
2023-01-30T21:47:06.987Z,13.98
2023-01-30T21:49:38.881Z,20.33
2023-01-30T21:52:10.330Z,15.05
2023-01-30T21:54:41.787Z,16.73
2023-01-30T21:57:13.238Z,16.58
2023-01-30T21:59:44.628Z,16.38
2023-01-30T22:02:16.083Z,18.30
2023-01-30T22:04:47.542Z,20.83
2023-01-30T22:07:19.113Z,17.67
2023-01-30T22:09:50.563Z,17.67
2023-01-30T22:12:22.007Z,16.92
2023-01-30T22:14:53.650Z,18.00
2023-01-30T22:17:25.128Z,16.65
2023-01-30T22:19:56.704Z,16.40
2023-01-30T22:22:30.929Z,18.70
2023-01-30T22:25:02.405Z,20.45
2023-01-30T22:27:33.877Z,19.30
2023-01-30T22:30:05.749Z,21.00
2023-01-30T22:32:37.416Z,20.80
2023-01-30T22:35:09.023Z,25.38
2023-01-30T22:37:40.428Z,19.60
2023-01-30T22:40:12.651Z,16.90
2023-01-30T22:42:47.528Z,25.65
2023-01-30T22:45:19.240Z,19.80
2023-01-30T22:47:50.839Z,18.35
2023-01-30T22:50:22.301Z,15.67
2023-01-30T22:52:55.267Z,19.20
2023-01-30T22:55:26.743Z,18.17
2023-01-30T22:57:58.171Z,13.35
2023-01-30T23:00:29.755Z,19.15
2023-01-30T23:03:01.705Z,17.70
2023-01-30T23:05:33.107Z,21.43
2023-01-30T23:08:04.750Z,24.90
2023-01-30T23:10:39.493Z,18.73
2023-01-30T23:13:10.901Z,20.27
2023-01-30T23:15:42.447Z,20.02
2023-01-30T23:18:14.755Z,19.13
2023-01-30T23:20:46.835Z,20.23
2023-01-30T23:23:18.301Z,19.35
2023-01-30T23:25:49.812Z,16.77
2023-01-30T23:28:21.240Z,13.98
2023-01-30T23:30:52.724Z,19.27
2023-01-30T23:33:24.206Z,16.92
2023-01-30T23:35:55.687Z,19.67
2023-01-30T23:38:27.123Z,21.98
2023-01-30T23:41:13.855Z,22.77
2023-01-30T23:43:46.557Z,20.08
2023-01-30T23:46:26.320Z,28.33
2023-01-30T23:49:00.440Z,24.83
2023-01-30T23:51:34.320Z,21.48
2023-01-30T23:54:06.206Z,20.50
2023-01-30T23:56:39.961Z,19.83
2023-01-30T23:59:12.073Z,24.20
